sensor_id;sensor_type;location;lat;lon;timestamp;pressure;altitude;pressure_sealevel;temperature;humidity
22775;BME280;11554;51.106;3.684;2023-05-12T00:00:00;101666.44;;;11.49;100.0
22775;BME280;11554;51.106;3.684;2023-05-12T00:05:00;101665.28;;;11.53;100.0
22775;BME280;11554;51.106;3.684;2023-05-12T00:10:00;101665.47;;;11.59;100.0
22775;BME280;11554;51.106;3.684;2023-05-12T00:15:00;101668.66;;;11.64;100.0
22775;BME280;11554;51.106;3.684;2023-05-12T00:20:00;101664.20000000001;;;11.68;100.0
22775;BME280;11554;51.106;3.684;2023-05-12T00:25:00;101661.97;;;11.70;100.0
22775;BME280;11554;51.106;3.684;2023-05-12T00:30:00;101654.8;;;11.73;100.0
22775;BME280;11554;51.106;3.684;2023-05-12T00:35:00;101654.88;;;11.75;100.0
22775;BME280;11554;51.106;3.684;2023-05-12T00:40:00;101653.97;;;11.76;100.0
22775;BME280;11554;51.106;3.684;2023-05-12T00:45:00;101648.89;;;11.77;100.0
22775;BME280;11554;51.106;3.684;2023-05-12T00:50:00;101644.31;;;11.77;100.0
22775;BME280;11554;51.106;3.684;2023-05-12T00:55:00;101643.52;;;11.78;100.0
22775;BME280;11554;51.106;3.684;2023-05-12T01:00:00;101638.25;;;11.76;100.0
22775;BME280;11554;51.106;3.684;2023-05-12T01:05:00;101632.36;;;11.76;100.0
22775;BME280;11554;51.106;3.684;2023-05-12T01:10:00;101635.31;;;11.77;100.0
22775;BME280;11554;51.106;3.684;2023-05-12T01:15:00;101635.22;;;11.76;100.0
22775;BME280;11554;51.106;3.684;2023-05-12T01:20:01;101630.47;;;11.76;100.0
22775;BME280;11554;51.106;3.684;2023-05-12T01:25:01;101630.17;;;11.77;100.0
22775;BME280;11554;51.106;3.684;2023-05-12T01:30:00;101631.41;;;11.78;100.0
22775;BME280;11554;51.106;3.684;2023-05-12T01:35:00;101624.83;;;11.78;100.0
22775;BME280;11554;51.106;3.684;2023-05-12T01:40:00;101628.45999999999;;;11.78;100.0
22775;BME280;11554;51.106;3.684;2023-05-12T01:45:00;101626.14;;;11.78;100.0
22775;BME280;11554;51.106;3.684;2023-05-12T01:50:00;101623.77;;;11.81;100.0
22775;BME280;11554;51.106;3.684;2023-05-12T01:55:00;101622.56;;;11.81;100.0
22775;BME280;11554;51.106;3.684;2023-05-12T02:00:00;101624.36;;;11.81;100.0
22775;BME280;11554;51.106;3.684;2023-05-12T02:05:00;101625.9;;;11.81;100.0
22775;BME280;11554;51.106;3.684;2023-05-12T02:10:00;101631.41;;;11.79;100.0
22775;BME280;11554;51.106;3.684;2023-05-12T02:15:00;101630.56;;;11.77;100.0
22775;BME280;11554;51.106;3.684;2023-05-12T02:20:00;101626.29;;;11.80;100.0
22775;BME280;11554;51.106;3.684;2023-05-12T02:25:00;101622.47;;;11.81;100.0
22775;BME280;11554;51.106;3.684;2023-05-12T02:30:00;101618.08;;;11.82;100.0
22775;BME280;11554;51.106;3.684;2023-05-12T02:35:00;101616.27;;;11.83;100.0
22775;BME280;11554;51.106;3.684;2023-05-12T02:40:00;101613.08;;;11.87;100.0
22775;BME280;11554;51.106;3.684;2023-05-12T02:45:00;101613.14;;;11.88;100.0
22775;BME280;11554;51.106;3.684;2023-05-12T02:50:00;101620.17;;;11.89;100.0
22775;BME280;11554;51.106;3.684;2023-05-12T02:55:00;101618.45;;;11.78;100.0
22775;BME280;11554;51.106;3.684;2023-05-12T03:00:00;101622.29999999999;;;11.42;100.0
22775;BME280;11554;51.106;3.684;2023-05-12T03:05:00;101621.66;;;11.35;100.0
22775;BME280;11554;51.106;3.684;2023-05-12T03:10:00;101623.82;;;11.33;100.0
22775;BME280;11554;51.106;3.684;2023-05-12T03:15:00;101618.42;;;11.33;100.0
22775;BME280;11554;51.106;3.684;2023-05-12T03:20:00;101614.17;;;11.33;100.0
22775;BME280;11554;51.106;3.684;2023-05-12T03:25:00;101613.51;;;11.30;100.0
22775;BME280;11554;51.106;3.684;2023-05-12T03:30:00;101615.99;;;11.29;100.0
22775;BME280;11554;51.106;3.684;2023-05-12T03:35:00;101614.18;;;11.27;100.0
22775;BME280;11554;51.106;3.684;2023-05-12T03:40:00;101609.67000000001;;;11.26;100.0
22775;BME280;11554;51.106;3.684;2023-05-12T03:45:00;101610.16;;;11.28;100.0
22775;BME280;11554;51.106;3.684;2023-05-12T03:50:00;101608.03;;;11.28;100.0
22775;BME280;11554;51.106;3.684;2023-05-12T03:55:00;101607.31;;;11.30;100.0
22775;BME280;11554;51.106;3.684;2023-05-12T04:00:00;101606.36;;;11.32;100.0
22775;BME280;11554;51.106;3.684;2023-05-12T04:05:00;101609.88;;;11.34;100.0
22775;BME280;11554;51.106;3.684;2023-05-12T04:10:00;101611.49;;;11.35;100.0
22775;BME280;11554;51.106;3.684;2023-05-12T04:15:00;101607.03;;;11.37;100.0
22775;BME280;11554;51.106;3.684;2023-05-12T04:20:00;101605.89;;;11.38;100.0
22775;BME280;11554;51.106;3.684;2023-05-12T04:25:00;101606.76999999999;;;11.36;100.0
22775;BME280;11554;51.106;3.684;2023-05-12T04:30:00;101600.64;;;11.31;100.0
22775;BME280;11554;51.106;3.684;2023-05-12T04:35:00;101606.81;;;11.20;100.0
22775;BME280;11554;51.106;3.684;2023-05-12T04:40:00;101605.40999999999;;;11.15;100.0
22775;BME280;11554;51.106;3.684;2023-05-12T04:45:00;101615.41;;;11.13;100.0
22775;BME280;11554;51.106;3.684;2023-05-12T04:50:00;101614.76;;;11.13;100.0
22775;BME280;11554;51.106;3.684;2023-05-12T04:55:00;101619.25;;;11.09;100.0
22775;BME280;11554;51.106;3.684;2023-05-12T05:00:00;101620.12;;;11.07;100.0
22775;BME280;11554;51.106;3.684;2023-05-12T05:05:00;101625.45999999999;;;11.06;100.0
22775;BME280;11554;51.106;3.684;2023-05-12T05:10:00;101630.95;;;11.05;100.0
22775;BME280;11554;51.106;3.684;2023-05-12T05:15:00;101633.5;;;11.02;100.0
22775;BME280;11554;51.106;3.684;2023-05-12T05:20:00;101634.42;;;11.01;100.0
22775;BME280;11554;51.106;3.684;2023-05-12T05:25:00;101633.67;;;10.96;100.0
22775;BME280;11554;51.106;3.684;2023-05-12T05:30:00;101633.7;;;10.92;100.0
22775;BME280;11554;51.106;3.684;2023-05-12T05:35:00;101635.5;;;10.86;100.0
22775;BME280;11554;51.106;3.684;2023-05-12T05:40:00;101631.94;;;10.83;100.0
22775;BME280;11554;51.106;3.684;2023-05-12T05:45:00;101632.1;;;10.83;100.0
22775;BME280;11554;51.106;3.684;2023-05-12T05:50:00;101627.43000000001;;;10.77;100.0
22775;BME280;11554;51.106;3.684;2023-05-12T05:55:00;101629.78;;;10.69;100.0
22775;BME280;11554;51.106;3.684;2023-05-12T06:00:00;101636.15;;;10.70;100.0
22775;BME280;11554;51.106;3.684;2023-05-12T06:05:00;101638.34000000001;;;10.67;100.0
22775;BME280;11554;51.106;3.684;2023-05-12T06:10:00;101636.41;;;10.64;100.0
22775;BME280;11554;51.106;3.684;2023-05-12T06:15:00;101631.8;;;10.65;100.0
22775;BME280;11554;51.106;3.684;2023-05-12T06:20:00;101629.58;;;10.63;100.0
22775;BME280;11554;51.106;3.684;2023-05-12T06:25:00;101625.72;;;10.66;100.0
22775;BME280;11554;51.106;3.684;2023-05-12T06:30:00;101617.26999999999;;;10.71;100.0
22775;BME280;11554;51.106;3.684;2023-05-12T06:35:00;101617.92;;;10.72;100.0
22775;BME280;11554;51.106;3.684;2023-05-12T06:40:00;101615.17;;;10.74;100.0
22775;BME280;11554;51.106;3.684;2023-05-12T06:45:00;101616.31999999999;;;10.71;100.0
22775;BME280;11554;51.106;3.684;2023-05-12T06:50:00;101611.84;;;10.75;100.0
22775;BME280;11554;51.106;3.684;2023-05-12T06:55:00;101614.65;;;10.69;100.0
22775;BME280;11554;51.106;3.684;2023-05-12T07:00:00;101613.14;;;10.63;100.0
22775;BME280;11554;51.106;3.684;2023-05-12T07:05:00;101615.23;;;10.60;100.0
22775;BME280;11554;51.106;3.684;2023-05-12T07:10:00;101613.05;;;10.64;100.0
22775;BME280;11554;51.106;3.684;2023-05-12T07:15:00;101615.92000000001;;;10.65;100.0
22775;BME280;11554;51.106;3.684;2023-05-12T07:20:00;101615.05;;;10.69;100.0
22775;BME280;11554;51.106;3.684;2023-05-12T07:25:00;101608.28;;;10.70;100.0
22775;BME280;11554;51.106;3.684;2023-05-12T07:30:00;101603.97;;;10.73;100.0
22775;BME280;11554;51.106;3.684;2023-05-12T07:35:00;101595.76;;;10.80;100.0
22775;BME280;11554;51.106;3.684;2023-05-12T07:40:00;101589.65;;;10.85;100.0
22775;BME280;11554;51.106;3.684;2023-05-12T07:45:00;101591.58;;;10.92;100.0
22775;BME280;11554;51.106;3.684;2023-05-12T07:50:00;101588.92;;;11.02;100.0
22775;BME280;11554;51.106;3.684;2023-05-12T07:55:00;101587.97;;;11.06;100.0
22775;BME280;11554;51.106;3.684;2023-05-12T08:00:00;101583.76;;;11.20;100.0
22775;BME280;11554;51.106;3.684;2023-05-12T08:05:00;101574.84;;;11.28;100.0
22775;BME280;11554;51.106;3.684;2023-05-12T08:10:00;101575.14;;;11.37;100.0
22775;BME280;11554;51.106;3.684;2023-05-12T08:15:00;101570.33;;;11.50;100.0
22775;BME280;11554;51.106;3.684;2023-05-12T08:20:00;101570.84;;;11.60;100.0
22775;BME280;11554;51.106;3.684;2023-05-12T08:25:00;101567.21;;;11.53;100.0
22775;BME280;11554;51.106;3.684;2023-05-12T08:30:00;101565.37;;;11.63;100.0
22775;BME280;11554;51.106;3.684;2023-05-12T08:35:00;101564.45;;;11.71;100.0
22775;BME280;11554;51.106;3.684;2023-05-12T08:40:00;101563.87;;;11.81;100.0
22775;BME280;11554;51.106;3.684;2023-05-12T08:45:00;101563.31;;;12.00;100.0
22775;BME280;11554;51.106;3.684;2023-05-12T08:50:01;101567.25;;;12.15;100.0
22775;BME280;11554;51.106;3.684;2023-05-12T08:55:00;101567.69;;;12.18;100.0
22775;BME280;11554;51.106;3.684;2023-05-12T09:00:00;101572.24;;;12.39;100.0
22775;BME280;11554;51.106;3.684;2023-05-12T09:05:00;101572.17000000001;;;12.64;100.0
22775;BME280;11554;51.106;3.684;2023-05-12T09:10:00;101573.27;;;12.99;100.0
22775;BME280;11554;51.106;3.684;2023-05-12T09:15:02;101573.58;;;13.03;100.0
22775;BME280;11554;51.106;3.684;2023-05-12T09:20:00;101570.79;;;13.03;100.0
22775;BME280;11554;51.106;3.684;2023-05-12T09:25:00;101575.98000000001;;;13.10;100.0
22775;BME280;11554;51.106;3.684;2023-05-12T09:30:00;101575.5;;;13.48;100.0
22775;BME280;11554;51.106;3.684;2023-05-12T09:35:01;101586.64;;;13.31;100.0
22775;BME280;11554;51.106;3.684;2023-05-12T09:40:00;101576.2;;;13.29;100.0
22775;BME280;11554;51.106;3.684;2023-05-12T09:45:01;101577.01;;;13.74;100.0
22775;BME280;11554;51.106;3.684;2023-05-12T09:50:00;101584.69;;;14.53;100.0
22775;BME280;11554;51.106;3.684;2023-05-12T09:55:04;101570.22;;;15.44;100.0
22775;BME280;11554;51.106;3.684;2023-05-12T10:00:00;101568.15000000001;;;15.87;100.0
22775;BME280;11554;51.106;3.684;2023-05-12T10:05:01;101578.68999999999;;;15.96;100.0
22775;BME280;11554;51.106;3.684;2023-05-12T10:10:01;101577.76;;;15.93;100.0
22775;BME280;11554;51.106;3.684;2023-05-12T10:15:00;101588.42;;;15.77;100.0
22775;BME280;11554;51.106;3.684;2023-05-12T10:20:00;101593.37000000001;;;15.67;100.0
22775;BME280;11554;51.106;3.684;2023-05-12T10:25:00;101586.87999999999;;;15.49;100.0
22775;BME280;11554;51.106;3.684;2023-05-12T10:30:00;101595.26;;;15.13;100.0
22775;BME280;11554;51.106;3.684;2023-05-12T10:35:07;101595.0;;;15.21;100.0
22775;BME280;11554;51.106;3.684;2023-05-12T10:40:00;101596.48;;;15.28;100.0
22775;BME280;11554;51.106;3.684;2023-05-12T10:45:00;101605.31;;;15.18;100.0
22775;BME280;11554;51.106;3.684;2023-05-12T10:50:00;101601.09;;;15.38;100.0
22775;BME280;11554;51.106;3.684;2023-05-12T10:55:01;101600.95999999999;;;15.48;100.0
22775;BME280;11554;51.106;3.684;2023-05-12T11:00:00;101601.33;;;15.49;100.0
22775;BME280;11554;51.106;3.684;2023-05-12T11:05:01;101607.34999999999;;;15.96;100.0
22775;BME280;11554;51.106;3.684;2023-05-12T11:10:01;101605.66;;;16.23;100.0
22775;BME280;11554;51.106;3.684;2023-05-12T11:15:01;101610.53;;;16.01;100.0
22775;BME280;11554;51.106;3.684;2023-05-12T11:20:00;101618.76999999999;;;15.79;100.0
22775;BME280;11554;51.106;3.684;2023-05-12T11:25:07;101624.73;;;15.48;100.0
22775;BME280;11554;51.106;3.684;2023-05-12T11:30:00;101620.64;;;15.48;100.0
22775;BME280;11554;51.106;3.684;2023-05-12T11:35:08;101630.81;;;15.38;100.0
22775;BME280;11554;51.106;3.684;2023-05-12T11:40:00;101630.40999999999;;;15.19;100.0
22775;BME280;11554;51.106;3.684;2023-05-12T11:45:00;101636.21;;;15.20;100.0
22775;BME280;11554;51.106;3.684;2023-05-12T11:50:00;101642.42;;;15.24;100.0
22775;BME280;11554;51.106;3.684;2023-05-12T11:55:00;101649.26000000001;;;15.09;100.0
22775;BME280;11554;51.106;3.684;2023-05-12T12:00:01;101646.12;;;15.12;100.0
22775;BME280;11554;51.106;3.684;2023-05-12T12:05:00;101652.82999999999;;;15.07;100.0
22775;BME280;11554;51.106;3.684;2023-05-12T12:10:09;101653.88;;;15.01;100.0
22775;BME280;11554;51.106;3.684;2023-05-12T12:15:00;101661.45;;;14.92;100.0
22775;BME280;11554;51.106;3.684;2023-05-12T12:20:00;101662.06;;;14.75;100.0
22775;BME280;11554;51.106;3.684;2023-05-12T12:25:00;101667.56;;;14.74;100.0
22775;BME280;11554;51.106;3.684;2023-05-12T12:30:00;101666.88;;;14.74;100.0
22775;BME280;11554;51.106;3.684;2023-05-12T12:35:00;101673.25;;;14.89;100.0
22775;BME280;11554;51.106;3.684;2023-05-12T12:40:00;101672.72;;;14.93;100.0
22775;BME280;11554;51.106;3.684;2023-05-12T12:45:00;101680.25;;;15.25;100.0
22775;BME280;11554;51.106;3.684;2023-05-12T12:50:00;101676.59999999999;;;15.73;100.0
22775;BME280;11554;51.106;3.684;2023-05-12T12:55:00;101679.85;;;16.49;100.0
22775;BME280;11554;51.106;3.684;2023-05-12T13:00:00;101682.22;;;16.75;100.0
22775;BME280;11554;51.106;3.684;2023-05-12T13:05:00;101684.69;;;17.47;100.0
22775;BME280;11554;51.106;3.684;2023-05-12T13:10:00;101682.9;;;17.83;100.0
22775;BME280;11554;51.106;3.684;2023-05-12T13:15:00;101686.95;;;18.42;100.0
22775;BME280;11554;51.106;3.684;2023-05-12T13:20:00;101686.91;;;19.90;100.0
22775;BME280;11554;51.106;3.684;2023-05-12T13:25:00;101677.76;;;19.94;92.31
22775;BME280;11554;51.106;3.684;2023-05-12T13:30:00;101686.03;;;19.68;95.08
22775;BME280;11554;51.106;3.684;2023-05-12T13:35:00;101673.67;;;20.65;93.03
22775;BME280;11554;51.106;3.684;2023-05-12T13:40:00;101669.74;;;21.46;94.98
22775;BME280;11554;51.106;3.684;2023-05-12T13:45:00;101674.98000000001;;;22.18;90.94
22775;BME280;11554;51.106;3.684;2023-05-12T13:50:00;101676.59;;;22.62;89.47
22775;BME280;11554;51.106;3.684;2023-05-12T13:55:00;101681.91;;;22.74;86.39
22775;BME280;11554;51.106;3.684;2023-05-12T14:00:00;101683.36;;;22.26;84.28
22775;BME280;11554;51.106;3.684;2023-05-12T14:05:00;101680.7;;;21.02;85.32
22775;BME280;11554;51.106;3.684;2023-05-12T14:10:00;101682.12;;;20.73;85.68
22775;BME280;11554;51.106;3.684;2023-05-12T14:15:00;101683.81000000001;;;19.98;85.42
22775;BME280;11554;51.106;3.684;2023-05-12T14:20:00;101685.86;;;19.68;86.13
22775;BME280;11554;51.106;3.684;2023-05-12T14:25:00;101682.73000000001;;;20.67;87.27
22775;BME280;11554;51.106;3.684;2023-05-12T14:30:00;101686.64;;;21.16;81.31
22775;BME280;11554;51.106;3.684;2023-05-12T14:35:00;101692.56;;;20.95;78.16
22775;BME280;11554;51.106;3.684;2023-05-12T14:40:00;101695.67;;;20.30;82.04
22775;BME280;11554;51.106;3.684;2023-05-12T14:45:00;101701.72;;;21.23;80.23
22775;BME280;11554;51.106;3.684;2023-05-12T14:50:00;101703.68999999999;;;20.56;80.88
22775;BME280;11554;51.106;3.684;2023-05-12T14:55:00;101708.22;;;20.44;80.92
22775;BME280;11554;51.106;3.684;2023-05-12T15:00:00;101711.44;;;20.57;80.21
22775;BME280;11554;51.106;3.684;2023-05-12T15:05:00;101718.76999999999;;;20.30;79.78
22775;BME280;11554;51.106;3.684;2023-05-12T15:10:00;101732.78;;;20.06;80.66
22775;BME280;11554;51.106;3.684;2023-05-12T15:15:00;101731.64;;;19.73;81.24
22775;BME280;11554;51.106;3.684;2023-05-12T15:20:00;101733.22;;;19.23;82.54
22775;BME280;11554;51.106;3.684;2023-05-12T15:25:00;101736.36;;;19.77;81.42
22775;BME280;11554;51.106;3.684;2023-05-12T15:30:00;101727.01;;;20.34;81.48
22775;BME280;11554;51.106;3.684;2023-05-12T15:35:00;101728.07;;;21.18;78.74
22775;BME280;11554;51.106;3.684;2023-05-12T15:40:00;101728.02;;;20.40;81.58
22775;BME280;11554;51.106;3.684;2023-05-12T15:45:00;101750.9;;;19.84;80.78
22775;BME280;11554;51.106;3.684;2023-05-12T15:50:00;101760.33;;;18.86;82.85
22775;BME280;11554;51.106;3.684;2023-05-12T15:55:00;101754.04;;;18.09;88.48
22775;BME280;11554;51.106;3.684;2023-05-12T16:00:00;101749.23999999999;;;18.24;88.96
22775;BME280;11554;51.106;3.684;2023-05-12T16:05:00;101746.17;;;18.21;88.51
22775;BME280;11554;51.106;3.684;2023-05-12T16:10:00;101748.83;;;18.33;88.38
22775;BME280;11554;51.106;3.684;2023-05-12T16:15:00;101753.23;;;18.09;85.43
22775;BME280;11554;51.106;3.684;2023-05-12T16:20:00;101757.61;;;18.30;86.61
22775;BME280;11554;51.106;3.684;2023-05-12T16:25:00;101761.08;;;19.02;86.15
22775;BME280;11554;51.106;3.684;2023-05-12T16:30:00;101758.65;;;19.97;83.81
22775;BME280;11554;51.106;3.684;2023-05-12T16:35:00;101761.83;;;20.76;84.12
22775;BME280;11554;51.106;3.684;2023-05-12T16:40:00;101758.53;;;21.61;79.58
22775;BME280;11554;51.106;3.684;2023-05-12T16:45:00;101761.49;;;22.17;79.58
22775;BME280;11554;51.106;3.684;2023-05-12T16:50:00;101760.38;;;20.88;78.35
22775;BME280;11554;51.106;3.684;2023-05-12T16:55:00;101770.08;;;19.92;80.44
22775;BME280;11554;51.106;3.684;2023-05-12T17:00:00;101771.61;;;19.43;83.25
22775;BME280;11554;51.106;3.684;2023-05-12T17:05:00;101773.73999999999;;;19.02;81.42
22775;BME280;11554;51.106;3.684;2023-05-12T17:10:00;101780.02;;;18.80;81.54
22775;BME280;11554;51.106;3.684;2023-05-12T17:15:00;101789.61;;;18.57;80.33
22775;BME280;11554;51.106;3.684;2023-05-12T17:20:00;101795.25;;;18.48;82.16
22775;BME280;11554;51.106;3.684;2023-05-12T17:25:00;101796.19;;;18.36;82.56
22775;BME280;11554;51.106;3.684;2023-05-12T17:30:00;101803.75;;;18.30;83.07
22775;BME280;11554;51.106;3.684;2023-05-12T17:35:00;101808.25;;;18.26;84.33
22775;BME280;11554;51.106;3.684;2023-05-12T17:40:00;101809.36;;;18.22;84.53
22775;BME280;11554;51.106;3.684;2023-05-12T17:45:00;101812.37999999999;;;18.21;84.48
22775;BME280;11554;51.106;3.684;2023-05-12T17:50:00;101819.75;;;18.18;84.38
22775;BME280;11554;51.106;3.684;2023-05-12T17:55:00;101824.77;;;18.09;84.75
22775;BME280;11554;51.106;3.684;2023-05-12T18:00:00;101828.63;;;18.02;85.16
22775;BME280;11554;51.106;3.684;2023-05-12T18:05:00;101833.48;;;17.98;86.79
22775;BME280;11554;51.106;3.684;2023-05-12T18:10:00;101838.95999999999;;;17.98;88.67
22775;BME280;11554;51.106;3.684;2023-05-12T18:15:00;101841.54999999999;;;17.94;89.4
22775;BME280;11554;51.106;3.684;2023-05-12T18:20:00;101845.68000000001;;;17.84;89.59
22775;BME280;11554;51.106;3.684;2023-05-12T18:25:00;101850.94;;;17.80;90.67
22775;BME280;11554;51.106;3.684;2023-05-12T18:30:00;101854.54;;;17.71;91.26
22775;BME280;11554;51.106;3.684;2023-05-12T18:35:00;101861.91;;;17.63;92.41
22775;BME280;11554;51.106;3.684;2023-05-12T18:40:00;101864.39;;;17.54;94.01
22775;BME280;11554;51.106;3.684;2023-05-12T18:45:00;101867.47;;;17.44;94.37
22775;BME280;11554;51.106;3.684;2023-05-12T18:50:00;101876.14;;;17.29;95.23
22775;BME280;11554;51.106;3.684;2023-05-12T18:55:00;101876.68;;;17.12;95.3
22775;BME280;11554;51.106;3.684;2023-05-12T19:00:00;101884.81;;;16.96;94.37
22775;BME280;11554;51.106;3.684;2023-05-12T19:05:00;101903.2;;;16.83;94.2
22775;BME280;11554;51.106;3.684;2023-05-12T19:10:00;101916.72;;;16.72;94.68
22775;BME280;11554;51.106;3.684;2023-05-12T19:15:00;101916.76999999999;;;16.63;96.83
22775;BME280;11554;51.106;3.684;2023-05-12T19:20:00;101922.75;;;16.53;99.26
22775;BME280;11554;51.106;3.684;2023-05-12T19:25:00;101932.96;;;16.47;100.0
22775;BME280;11554;51.106;3.684;2023-05-12T19:30:00;101927.98;;;16.38;100.0
22775;BME280;11554;51.106;3.684;2023-05-12T19:35:01;101938.72;;;16.30;100.0
22775;BME280;11554;51.106;3.684;2023-05-12T19:40:00;101946.47;;;16.22;100.0
22775;BME280;11554;51.106;3.684;2023-05-12T19:45:00;101946.39;;;16.09;100.0
22775;BME280;11554;51.106;3.684;2023-05-12T19:50:00;101947.77;;;16.01;97.31
22775;BME280;11554;51.106;3.684;2023-05-12T19:55:00;101945.39;;;15.90;93.72
22775;BME280;11554;51.106;3.684;2023-05-12T20:00:00;101945.88;;;15.84;92.13
22775;BME280;11554;51.106;3.684;2023-05-12T20:05:00;101948.35;;;15.75;93.54
22775;BME280;11554;51.106;3.684;2023-05-12T20:10:00;101960.47;;;15.64;94.24
22775;BME280;11554;51.106;3.684;2023-05-12T20:15:00;101964.62;;;15.53;95.41
22775;BME280;11554;51.106;3.684;2023-05-12T20:20:00;101967.16;;;15.42;96.45
22775;BME280;11554;51.106;3.684;2023-05-12T20:25:00;101969.55;;;15.34;96.84
22775;BME280;11554;51.106;3.684;2023-05-12T20:30:00;101967.89;;;15.28;96.73
22775;BME280;11554;51.106;3.684;2023-05-12T20:35:00;101974.69;;;15.21;96.75
22775;BME280;11554;51.106;3.684;2023-05-12T20:40:00;101974.56;;;15.13;97.49
22775;BME280;11554;51.106;3.684;2023-05-12T20:45:00;101983.59;;;15.06;98.03
22775;BME280;11554;51.106;3.684;2023-05-12T20:50:00;101984.52;;;14.99;97.68
22775;BME280;11554;51.106;3.684;2023-05-12T20:55:00;101983.81000000001;;;14.95;96.99
22775;BME280;11554;51.106;3.684;2023-05-12T21:00:00;101985.67;;;14.90;97.23
22775;BME280;11554;51.106;3.684;2023-05-12T21:05:00;101985.19;;;14.84;97.53
22775;BME280;11554;51.106;3.684;2023-05-12T21:10:00;101983.68000000001;;;14.78;98.27
22775;BME280;11554;51.106;3.684;2023-05-12T21:15:00;101985.41;;;14.70;98.98
22775;BME280;11554;51.106;3.684;2023-05-12T21:20:00;101987.07;;;14.61;99.44
22775;BME280;11554;51.106;3.684;2023-05-12T21:25:00;101991.86;;;14.55;100.0
22775;BME280;11554;51.106;3.684;2023-05-12T21:30:00;101990.08;;;14.49;100.0
22775;BME280;11554;51.106;3.684;2023-05-12T21:35:00;101990.59;;;14.43;100.0
22775;BME280;11554;51.106;3.684;2023-05-12T21:40:00;101997.19;;;14.36;100.0
22775;BME280;11554;51.106;3.684;2023-05-12T21:45:00;102007.34;;;14.29;100.0
22775;BME280;11554;51.106;3.684;2023-05-12T21:50:00;102010.82;;;14.26;100.0
22775;BME280;11554;51.106;3.684;2023-05-12T21:55:00;102013.92;;;14.33;98.73
22775;BME280;11554;51.106;3.684;2023-05-12T22:00:00;102017.01000000001;;;14.36;97.51
22775;BME280;11554;51.106;3.684;2023-05-12T22:05:00;102022.29;;;14.34;97.53
22775;BME280;11554;51.106;3.684;2023-05-12T22:10:00;102023.44;;;14.34;97.61
22775;BME280;11554;51.106;3.684;2023-05-12T22:15:00;102030.1;;;14.28;98.53
22775;BME280;11554;51.106;3.684;2023-05-12T22:20:00;102030.44;;;14.26;99.1
22775;BME280;11554;51.106;3.684;2023-05-12T22:25:00;102033.91;;;14.19;99.44
22775;BME280;11554;51.106;3.684;2023-05-12T22:30:00;102034.92;;;14.11;100.0
22775;BME280;11554;51.106;3.684;2023-05-12T22:35:00;102046.64;;;14.07;100.0
22775;BME280;11554;51.106;3.684;2023-05-12T22:40:00;102047.66;;;14.01;100.0
22775;BME280;11554;51.106;3.684;2023-05-12T22:45:00;102051.4;;;13.96;100.0
22775;BME280;11554;51.106;3.684;2023-05-12T22:50:00;102048.89;;;13.95;100.0
22775;BME280;11554;51.106;3.684;2023-05-12T22:55:00;102049.87999999999;;;13.99;100.0
22775;BME280;11554;51.106;3.684;2023-05-12T23:00:00;102053.64;;;13.96;100.0
22775;BME280;11554;51.106;3.684;2023-05-12T23:05:00;102051.26000000001;;;13.91;100.0
22775;BME280;11554;51.106;3.684;2023-05-12T23:10:00;102050.69;;;13.84;100.0
22775;BME280;11554;51.106;3.684;2023-05-12T23:15:00;102054.08;;;13.78;100.0
22775;BME280;11554;51.106;3.684;2023-05-12T23:20:00;102057.51000000001;;;13.73;100.0
22775;BME280;11554;51.106;3.684;2023-05-12T23:25:00;102059.75;;;13.66;100.0
22775;BME280;11554;51.106;3.684;2023-05-12T23:30:00;102063.11;;;13.56;100.0
22775;BME280;11554;51.106;3.684;2023-05-12T23:35:00;102067.07;;;13.43;100.0
22775;BME280;11554;51.106;3.684;2023-05-12T23:40:00;102069.14;;;13.29;100.0
22775;BME280;11554;51.106;3.684;2023-05-12T23:45:00;102068.07;;;13.15;100.0
22775;BME280;11554;51.106;3.684;2023-05-12T23:50:00;102071.45000000001;;;13.02;100.0
22775;BME280;11554;51.106;3.684;2023-05-12T23:55:00;102070.84;;;12.92;100.0
